createdAt,value
2022-10-15T00:05:10.743Z,954.84
2022-10-15T00:10:42.456Z,954.82
2022-10-15T00:16:14.315Z,954.76
2022-10-15T00:21:46.407Z,954.72
2022-10-15T00:27:18.141Z,954.68
2022-10-15T00:32:49.753Z,954.63
2022-10-15T00:38:21.475Z,954.57
2022-10-15T00:46:15.193Z,954.41
2022-10-15T00:51:46.837Z,954.39
2022-10-15T00:57:18.550Z,954.33
2022-10-15T01:13:48.921Z,954.23
2022-10-15T01:19:20.275Z,954.21
2022-10-15T01:24:52.370Z,954.17
2022-10-15T01:30:24.114Z,954.12
2022-10-15T01:35:56.010Z,954.08
2022-10-15T01:41:27.868Z,954.02
2022-10-15T01:46:59.699Z,953.98
2022-10-15T01:58:03.482Z,953.86
2022-10-15T02:03:35.351Z,953.80
2022-10-15T02:11:29.181Z,953.64
2022-10-15T02:17:01.286Z,953.62
2022-10-15T02:22:34.468Z,953.59
2022-10-15T02:28:06.214Z,953.57
2022-10-15T02:33:37.933Z,953.57
2022-10-15T02:39:09.611Z,953.53
2022-10-15T02:44:41.519Z,953.49
2022-10-15T02:50:13.211Z,953.45
2022-10-15T02:55:45.016Z,953.39
2022-10-15T03:01:16.967Z,953.37
2022-10-15T03:06:48.619Z,953.37
2022-10-15T03:17:52.275Z,953.35
2022-10-15T03:23:24.500Z,953.35
2022-10-15T03:28:56.139Z,953.35
2022-10-15T03:31:19.376Z,953.31
2022-10-15T03:36:51.141Z,953.33
2022-10-15T03:42:23.152Z,953.31
2022-10-15T03:47:54.904Z,953.29
2022-10-15T03:53:26.619Z,953.33
2022-10-15T03:58:58.574Z,953.33
2022-10-15T04:04:30.039Z,953.31
2022-10-15T04:10:02.044Z,953.29
2022-10-15T04:15:33.819Z,953.29
2022-10-15T04:21:05.566Z,953.29
2022-10-15T04:26:37.511Z,953.27
2022-10-15T04:32:09.257Z,953.29
2022-10-15T04:37:41.059Z,953.29
2022-10-15T04:43:13.269Z,953.29
2022-10-15T04:48:44.894Z,953.29
2022-10-15T04:54:17.025Z,953.33
2022-10-15T04:59:51.445Z,953.37
2022-10-15T05:05:20.337Z,953.35
2022-10-15T05:10:52.107Z,953.33
2022-10-15T05:16:24.022Z,953.35
2022-10-15T05:21:55.630Z,953.37
2022-10-15T05:27:27.515Z,953.39
2022-10-15T05:32:59.501Z,953.39
2022-10-15T05:38:31.247Z,953.47
2022-10-15T05:44:03.180Z,953.53
2022-10-15T05:49:34.799Z,953.59
2022-10-15T05:55:06.494Z,953.62
2022-10-15T06:00:38.236Z,953.68
2022-10-15T06:06:09.778Z,953.72
2022-10-15T06:11:41.709Z,953.74
2022-10-15T06:17:13.441Z,953.82
2022-10-15T06:22:45.406Z,953.98
2022-10-15T06:28:17.040Z,954.04
2022-10-15T06:33:48.797Z,954.16
2022-10-15T06:39:20.421Z,954.23
2022-10-15T06:44:52.419Z,954.31
2022-10-15T06:50:24.391Z,954.39
2022-10-15T06:55:56.221Z,954.47
2022-10-15T07:01:28.044Z,954.57
2022-10-15T07:06:59.666Z,954.65
2022-10-15T07:12:31.753Z,954.68
2022-10-15T07:18:03.413Z,954.78
2022-10-15T07:23:35.020Z,954.84
2022-10-15T07:29:06.618Z,954.92
2022-10-15T07:34:38.320Z,955.02
2022-10-15T07:40:10.276Z,955.02
2022-10-15T07:45:42.056Z,955.02
2022-10-15T07:51:13.863Z,955.12
2022-10-15T07:56:45.222Z,955.17
2022-10-15T08:02:16.998Z,955.23
2022-10-15T08:13:18.006Z,955.35
2022-10-15T08:18:49.732Z,955.43
2022-10-15T08:24:21.499Z,955.49
2022-10-15T08:29:53.206Z,955.55
2022-10-15T08:35:25.054Z,955.64
2022-10-15T08:40:56.742Z,955.74
2022-10-15T08:46:28.618Z,955.84
2022-10-15T08:52:00.298Z,955.94
2022-10-15T09:03:03.752Z,956.08
2022-10-15T09:08:36.017Z,956.16
2022-10-15T09:14:10.272Z,956.17
2022-10-15T09:36:19.834Z,956.19
2022-10-15T09:41:51.397Z,956.23
2022-10-15T09:47:23.378Z,956.29
2022-10-15T09:52:55.109Z,956.33
2022-10-15T09:58:26.911Z,956.37
2022-10-15T10:09:30.309Z,956.43
2022-10-15T10:20:34.426Z,956.39
2022-10-15T10:26:06.069Z,956.35
2022-10-15T10:31:37.918Z,956.31
2022-10-15T10:37:09.707Z,956.33
2022-10-15T10:42:41.356Z,956.27
2022-10-15T10:48:13.184Z,956.25
2022-10-15T10:53:44.985Z,956.25
2022-10-15T10:59:16.902Z,956.25
2022-10-15T11:07:09.089Z,956.16
2022-10-15T11:12:40.966Z,956.17
2022-10-15T11:18:13.023Z,956.19
2022-10-15T11:23:45.031Z,956.21
2022-10-15T11:29:16.732Z,956.21
2022-10-15T11:34:48.622Z,956.23
2022-10-15T11:40:20.511Z,956.23
2022-10-15T11:45:52.283Z,956.21
2022-10-15T11:51:23.590Z,956.17
2022-10-15T11:56:55.211Z,956.19
2022-10-15T12:02:27.061Z,956.17
2022-10-15T12:07:58.976Z,956.14
2022-10-15T12:13:30.355Z,956.12
2022-10-15T12:19:02.508Z,956.16
2022-10-15T12:24:34.415Z,956.16
2022-10-15T12:30:06.267Z,956.14
2022-10-15T12:35:38.273Z,956.14
2022-10-15T12:41:09.821Z,956.12
2022-10-15T12:46:41.508Z,956.10
2022-10-15T12:52:13.562Z,956.06
2022-10-15T12:57:45.080Z,956.06
2022-10-15T13:03:16.764Z,956.04
2022-10-15T13:08:48.284Z,956.06
2022-10-15T13:14:19.910Z,956.08
2022-10-15T13:19:51.321Z,956.12
2022-10-15T13:25:23.413Z,956.14
2022-10-15T13:30:56.349Z,956.12
2022-10-15T13:36:28.265Z,956.16
2022-10-15T13:41:59.902Z,956.08
2022-10-15T13:47:33.492Z,956.08
2022-10-15T13:53:05.172Z,956.06
2022-10-15T13:58:36.754Z,956.04
2022-10-15T14:04:08.864Z,956.00
2022-10-15T14:09:40.626Z,955.98
2022-10-15T14:15:17.821Z,955.98
2022-10-15T14:20:51.433Z,955.96
2022-10-15T14:26:22.852Z,955.92
2022-10-15T14:31:54.551Z,955.90
2022-10-15T14:37:26.327Z,955.90
2022-10-15T14:42:58.149Z,955.90
2022-10-15T14:48:29.756Z,955.92
2022-10-15T14:54:01.653Z,955.98
2022-10-15T14:59:33.644Z,956.02
2022-10-15T15:05:05.682Z,956.06
2022-10-15T15:10:38.372Z,956.02
2022-10-15T15:16:09.940Z,956.00
2022-10-15T15:21:41.751Z,955.98
2022-10-15T15:27:13.399Z,956.02
2022-10-15T15:32:45.286Z,956.02
2022-10-15T15:38:17.117Z,956.06
2022-10-15T15:43:48.804Z,956.08
2022-10-15T15:49:20.611Z,956.14
2022-10-15T15:54:52.354Z,956.17
2022-10-15T16:00:24.103Z,956.19
2022-10-15T16:05:56.060Z,956.19
2022-10-15T16:11:27.762Z,956.19
2022-10-15T16:16:59.876Z,956.21
2022-10-15T16:22:31.717Z,956.23
2022-10-15T16:28:03.368Z,956.31
2022-10-15T16:33:35.158Z,956.39
2022-10-15T16:39:06.828Z,956.41
2022-10-15T16:44:38.837Z,956.47
2022-10-15T16:50:10.754Z,956.55
2022-10-15T16:55:42.440Z,956.57
2022-10-15T17:01:13.972Z,956.61
2022-10-15T17:12:15.349Z,956.67
2022-10-15T17:17:47.222Z,956.72
2022-10-15T17:23:18.964Z,956.80
2022-10-15T17:28:50.828Z,956.88
2022-10-15T17:34:22.722Z,956.94
2022-10-15T17:39:54.754Z,956.98
2022-10-15T17:45:26.355Z,957.06
2022-10-15T17:50:58.140Z,957.12
2022-10-15T18:02:00.351Z,957.25
2022-10-15T18:07:31.111Z,957.29
2022-10-15T18:13:03.742Z,957.33
2022-10-15T18:18:35.383Z,957.33
2022-10-15T18:24:07.241Z,957.33
2022-10-15T18:29:39.132Z,957.35
2022-10-15T18:35:11.137Z,957.39
2022-10-15T18:40:42.802Z,957.41
2022-10-15T18:46:14.531Z,957.45
2022-10-15T18:51:46.884Z,957.49
2022-10-15T18:57:18.970Z,957.55
2022-10-15T19:02:50.759Z,957.57
2022-10-15T19:08:22.435Z,957.59
2022-10-15T19:13:54.006Z,957.59
2022-10-15T19:19:25.650Z,957.59
2022-10-15T19:24:57.435Z,957.61
2022-10-15T19:30:29.357Z,957.63
2022-10-15T19:36:00.943Z,957.69
2022-10-15T19:41:32.732Z,957.76
2022-10-15T19:47:04.665Z,957.78
2022-10-15T19:52:36.546Z,957.84
2022-10-15T19:58:08.001Z,957.88
2022-10-15T20:03:39.686Z,957.94
2022-10-15T20:09:11.580Z,957.98
2022-10-15T20:14:43.282Z,958.04
2022-10-15T20:20:15.282Z,958.08
2022-10-15T20:25:48.190Z,958.10
2022-10-15T20:31:20.228Z,958.14
2022-10-15T20:36:51.870Z,958.16
2022-10-15T20:53:29.122Z,958.25
2022-10-15T20:59:00.778Z,958.33
2022-10-15T21:10:02.204Z,958.39
2022-10-15T21:15:33.892Z,958.43
2022-10-15T21:26:38.601Z,958.53
2022-10-15T21:32:10.376Z,958.57
2022-10-15T21:37:42.019Z,958.63
2022-10-15T21:48:45.662Z,958.70
2022-10-15T21:54:17.326Z,958.74
2022-10-15T21:59:48.900Z,958.76
2022-10-15T22:05:20.810Z,958.80
2022-10-15T22:10:52.527Z,958.82
2022-10-15T22:16:24.437Z,958.86
2022-10-15T22:21:56.144Z,958.88
2022-10-15T22:27:27.966Z,958.96
2022-10-15T22:32:59.722Z,959.02
2022-10-15T22:38:31.485Z,959.04
2022-10-15T22:44:03.321Z,959.16
2022-10-15T22:49:35.323Z,959.12
2022-10-15T22:55:06.868Z,959.12
2022-10-15T23:00:38.618Z,959.04
2022-10-15T23:06:10.423Z,959.04
2022-10-15T23:11:42.066Z,959.04
2022-10-15T23:17:13.918Z,959.14
2022-10-15T23:22:45.878Z,959.16
2022-10-15T23:28:17.992Z,959.16
2022-10-15T23:33:49.888Z,959.19
2022-10-15T23:39:21.626Z,959.23
2022-10-15T23:44:53.272Z,959.25
2022-10-15T23:50:25.147Z,959.27
2022-10-15T23:55:57.171Z,959.29
